Time;durP1;ratioP1;P1;durP2;ratioP2;P2;SDS_P1;SDS_P2;PMS_P1;PMS_P2;Temp;Humidity;BMP_temperature;BMP_pressure;BME280_temperature;BME280_humidity;BME280_pressure;Samples;Min_cycle;Max_cycle;Signal;HPM_P1;HPM_P2
2022/08/13 00:00:50;;;;;;;4.22;2.03;;;19.50;87.10;;;;;;5111513;28;20215;-52
2022/08/13 00:03:19;;;;;;;1.95;1.80;;;19.50;87.80;;;;;;5111739;28;20221;-51
2022/08/13 00:06:10;;;;;;;2.50;1.70;;;19.40;88.20;;;;;;5111708;28;20238;-52
2022/08/13 00:08:54;;;;;;;2.90;2.08;;;19.30;88.70;;;;;;5112173;28;20211;-52
2022/08/13 00:14:31;;;;;;;1.90;1.80;;;19.20;89.20;;;;;;5086455;28;20321;-51
2022/08/13 00:17:05;;;;;;;2.20;2.00;;;19.10;89.40;;;;;;5112062;28;20203;-51
2022/08/13 00:19:39;;;;;;;6.75;2.20;;;19.10;89.90;;;;;;5104427;28;20255;-52
2022/08/13 00:22:08;;;;;;;3.17;1.70;;;19.00;90.10;;;;;;5102343;28;20222;-51
2022/08/13 00:24:57;;;;;;;2.17;1.98;;;19.00;90.20;;;;;;5098647;28;20231;-51
2022/08/13 00:27:26;;;;;;;2.33;1.90;;;18.90;90.40;;;;;;5110757;28;20223;-51
2022/08/13 00:30:16;;;;;;;4.95;2.17;;;18.90;90.30;;;;;;5083809;28;20725;-51
2022/08/13 00:33:00;;;;;;;2.75;2.08;;;18.90;90.30;;;;;;5099572;28;20242;-51
2022/08/13 00:35:31;;;;;;;6.03;2.03;;;18.90;90.40;;;;;;5083304;28;20204;-51
2022/08/13 00:38:09;;;;;;;3.00;2.00;;;18.90;90.40;;;;;;5111896;28;20200;-51
2022/08/13 00:40:42;;;;;;;4.05;2.20;;;18.90;90.60;;;;;;5083895;28;20227;-51
2022/08/13 00:43:25;;;;;;;3.55;2.08;;;18.90;90.50;;;;;;5111011;28;20211;-52
2022/08/13 00:45:54;;;;;;;2.53;1.90;;;18.90;90.60;;;;;;5111517;28;20200;-51
2022/08/13 00:51:21;;;;;;;4.95;1.92;;;18.80;90.80;;;;;;5111281;28;20223;-51
2022/08/13 00:54:12;;;;;;;2.00;1.90;;;18.80;90.80;;;;;;5081883;28;20638;-51
2022/08/13 00:56:40;;;;;;;3.17;2.20;;;18.80;90.70;;;;;;5103605;28;20639;-51
2022/08/13 00:59:13;;;;;;;3.58;2.05;;;18.80;90.90;;;;;;5102674;28;20761;-51
2022/08/13 01:01:43;;;;;;;1.98;1.77;;;18.80;91.20;;;;;;5110664;28;20227;-52
2022/08/13 01:04:20;;;;;;;3.72;2.20;;;18.80;90.80;;;;;;5109386;28;20199;-51
2022/08/13 01:06:57;;;;;;;4.07;2.20;;;18.80;90.80;;;;;;5101900;28;20253;-51
2022/08/13 01:09:29;;;;;;;2.80;2.30;;;18.80;90.80;;;;;;5094372;28;20311;-51
2022/08/13 01:12:19;;;;;;;4.15;1.98;;;18.80;90.80;;;;;;5099906;28;20300;-51
2022/08/13 01:14:55;;;;;;;3.63;2.00;;;18.80;90.70;;;;;;5108347;28;20606;-52
2022/08/13 01:17:27;;;;;;;4.65;2.00;;;18.80;90.90;;;;;;5096175;28;20203;-52
2022/08/13 01:20:20;;;;;;;3.92;2.90;;;18.70;90.90;;;;;;5105504;28;20699;-51
2022/08/13 01:23:04;;;;;;;5.28;2.20;;;18.70;91.00;;;;;;5110891;28;20204;-50
2022/08/13 01:25:36;;;;;;;3.95;2.20;;;18.60;91.10;;;;;;5095499;28;20303;-51
2022/08/13 01:28:22;;;;;;;3.72;2.33;;;18.60;91.30;;;;;;5101986;28;20200;-51
2022/08/13 01:30:53;;;;;;;3.67;2.00;;;18.50;91.50;;;;;;5105506;28;20251;-51
2022/08/13 01:33:23;;;;;;;2.35;1.90;;;18.50;91.60;;;;;;5109699;28;20290;-52
2022/08/13 01:35:52;;;;;;;2.97;2.20;;;18.40;91.90;;;;;;5110150;28;20211;-51
2022/08/13 01:38:23;;;;;;;6.00;2.45;;;18.40;92.00;;;;;;5110251;28;20264;-52
2022/08/13 01:40:54;;;;;;;4.45;2.53;;;18.40;91.80;;;;;;5110003;28;20231;-52
2022/08/13 01:43:22;;;;;;;5.20;2.13;;;18.30;92.10;;;;;;5081628;28;20208;-52
2022/08/13 01:45:52;;;;;;;4.03;2.05;;;18.30;92.10;;;;;;5110446;28;20204;-51
2022/08/13 01:51:11;;;;;;;3.17;2.08;;;18.30;92.40;;;;;;5110247;28;21050;-51
2022/08/13 01:53:53;;;;;;;4.53;2.28;;;18.30;92.40;;;;;;5109626;28;20207;-51
2022/08/13 01:56:23;;;;;;;4.88;2.08;;;18.20;92.50;;;;;;5106823;28;20203;-51
2022/08/13 01:58:53;;;;;;;6.95;2.40;;;18.20;92.40;;;;;;5109810;28;20223;-52
2022/08/13 02:01:37;;;;;;;2.40;2.10;;;18.30;92.70;;;;;;5109873;28;20227;-52
2022/08/13 02:04:11;;;;;;;2.40;2.20;;;18.20;92.60;;;;;;5109992;28;20235;-52
2022/08/13 02:06:39;;;;;;;3.42;2.20;;;18.20;92.70;;;;;;5101108;28;20204;-51
2022/08/13 02:09:11;;;;;;;4.80;2.30;;;18.20;92.50;;;;;;5109529;28;20674;-51
2022/08/13 02:12:01;;;;;;;5.22;2.10;;;18.30;92.60;;;;;;5109721;28;20276;-51
2022/08/13 02:14:30;;;;;;;4.30;2.03;;;18.30;92.70;;;;;;5109868;28;20257;-52
2022/08/13 02:16:58;;;;;;;2.35;2.15;;;18.20;92.70;;;;;;5095070;28;20208;-51
2022/08/13 02:19:26;;;;;;;4.82;2.22;;;18.20;93.00;;;;;;5106808;28;20256;-51
2022/08/13 02:21:59;;;;;;;2.10;1.98;;;18.20;93.00;;;;;;5109298;28;20719;-51
2022/08/13 02:24:38;;;;;;;3.92;2.20;;;18.20;92.90;;;;;;5108502;28;20206;-52
2022/08/13 02:27:11;;;;;;;2.20;2.00;;;18.10;93.00;;;;;;5095680;28;20230;-52
2022/08/13 02:29:44;;;;;;;3.53;2.10;;;18.10;93.10;;;;;;5097797;28;20204;-51
2022/08/13 02:32:14;;;;;;;2.80;2.20;;;18.10;93.30;;;;;;5109613;28;20218;-51
2022/08/13 02:34:46;;;;;;;3.78;2.20;;;18.00;93.30;;;;;;5096762;28;20211;-51
2022/08/13 02:37:15;;;;;;;2.65;2.00;;;18.00;93.70;;;;;;5110008;28;20203;-51
2022/08/13 02:41:38;;;;;;;2.50;2.30;;;18.00;93.50;;;;;;5109521;28;20315;-51
2022/08/13 02:42:59;;;;;;;2.63;2.42;;;18.00;93.80;;;;;;5108744;28;20278;-51
2022/08/13 02:45:29;;;;;;;2.63;2.33;;;17.90;94.20;;;;;;5109743;28;20212;-52
2022/08/13 02:48:05;;;;;;;3.28;2.20;;;17.80;94.70;;;;;;5087833;28;20191;-52
2022/08/13 02:50:42;;;;;;;2.50;2.30;;;17.80;94.60;;;;;;5092802;28;20219;-52
2022/08/13 02:53:14;;;;;;;2.70;2.20;;;17.70;94.60;;;;;;5089352;28;20200;-51
2022/08/13 02:55:59;;;;;;;3.75;2.00;;;17.70;94.70;;;;;;5091828;28;20318;-51
2022/08/13 02:58:27;;;;;;;3.08;2.40;;;17.60;94.90;;;;;;5105814;28;20208;-52
2022/08/13 03:00:55;;;;;;;2.30;2.10;;;17.60;94.90;;;;;;5109457;28;20223;-52
2022/08/13 03:03:26;;;;;;;2.45;2.10;;;17.60;95.00;;;;;;5109217;28;20668;-51
2022/08/13 03:05:55;;;;;;;5.00;2.30;;;17.60;95.20;;;;;;5099106;28;20196;-51
2022/08/13 03:08:28;;;;;;;2.75;2.30;;;17.60;95.30;;;;;;5109021;28;20214;-52
2022/08/13 03:11:10;;;;;;;3.70;2.60;;;17.60;95.50;;;;;;5109330;28;20235;-51
2022/08/13 03:13:44;;;;;;;3.22;2.45;;;17.60;95.70;;;;;;5112725;28;20683;-51
2022/08/13 03:16:15;;;;;;;3.45;2.20;;;17.50;95.90;;;;;;5112853;28;20235;-51
2022/08/13 03:18:46;;;;;;;2.80;2.30;;;17.50;96.10;;;;;;5108918;28;20250;-52
2022/08/13 03:21:23;;;;;;;4.53;2.50;;;17.50;96.10;;;;;;5104597;28;20236;-51
2022/08/13 03:24:13;;;;;;;2.78;2.47;;;17.40;96.50;;;;;;5109677;28;20210;-52
2022/08/13 03:26:52;;;;;;;4.65;2.40;;;17.40;96.50;;;;;;5113020;28;20290;-51
2022/08/13 03:29:22;;;;;;;3.80;2.58;;;17.40;96.80;;;;;;5099364;28;20603;-52
2022/08/13 03:32:10;;;;;;;3.90;2.47;;;17.40;97.00;;;;;;5112855;28;20210;-52
2022/08/13 03:34:40;;;;;;;2.70;2.50;;;17.30;97.10;;;;;;5098080;28;20203;-52
2022/08/13 03:37:10;;;;;;;2.67;2.10;;;17.30;97.10;;;;;;5112297;28;20214;-52
2022/08/13 03:39:38;;;;;;;3.20;2.13;;;17.30;97.30;;;;;;5112280;28;20261;-52
2022/08/13 03:42:10;;;;;;;4.35;2.25;;;17.20;97.40;;;;;;5112484;28;20231;-51
2022/08/13 03:44:39;;;;;;;5.82;2.47;;;17.20;97.90;;;;;;5112356;28;20655;-52
2022/08/13 03:47:07;;;;;;;4.20;2.38;;;17.10;97.90;;;;;;5112358;28;20261;-52
2022/08/13 03:49:55;;;;;;;3.22;2.50;;;17.10;98.20;;;;;;5111428;28;20302;-51
2022/08/13 03:52:23;;;;;;;2.83;2.15;;;17.00;98.30;;;;;;5112282;28;20622;-52
2022/08/13 03:55:01;;;;;;;3.92;2.40;;;17.00;98.40;;;;;;5105767;28;20588;-51
2022/08/13 03:57:32;;;;;;;2.55;2.35;;;17.10;98.40;;;;;;5102987;28;20211;-52
2022/08/13 04:00:20;;;;;;;3.63;2.55;;;17.10;98.60;;;;;;5111946;28;20656;-52
2022/08/13 04:02:52;;;;;;;3.35;2.53;;;17.00;99.00;;;;;;5111983;28;20212;-52
2022/08/13 04:05:22;;;;;;;3.58;2.35;;;17.00;99.10;;;;;;5111721;28;20251;-52
2022/08/13 04:08:10;;;;;;;4.82;2.40;;;16.90;98.90;;;;;;5111601;28;20320;-52
2022/08/13 04:10:42;;;;;;;4.53;2.60;;;16.90;99.10;;;;;;5110031;28;20251;-51
2022/08/13 04:13:24;;;;;;;3.13;2.33;;;16.90;99.80;;;;;;5110440;28;20206;-52
2022/08/13 04:16:14;;;;;;;4.70;2.28;;;16.90;99.30;;;;;;5110029;28;20286;-52
2022/08/13 04:18:46;;;;;;;3.10;2.65;;;16.90;99.60;;;;;;5108344;27;20239;-52
2022/08/13 04:21:16;;;;;;;4.75;2.80;;;16.80;99.70;;;;;;5110139;28;20292;-52
2022/08/13 04:23:52;;;;;;;3.75;2.50;;;16.90;99.80;;;;;;5094441;28;20199;-52
2022/08/13 04:26:25;;;;;;;4.55;2.70;;;16.90;99.70;;;;;;5106905;28;20212;-52
2022/08/13 04:29:04;;;;;;;4.28;2.35;;;16.80;99.90;;;;;;5108100;28;20207;-52
2022/08/13 04:31:34;;;;;;;5.22;2.42;;;16.80;99.90;;;;;;5109793;28;20312;-51
2022/08/13 04:34:16;;;;;;;3.47;2.72;;;16.80;99.90;;;;;;5100831;28;20325;-52
2022/08/13 04:37:07;;;;;;;3.67;2.58;;;16.80;99.90;;;;;;5101845;28;20286;-52
2022/08/13 04:39:37;;;;;;;4.95;2.70;;;16.80;99.90;;;;;;5108047;28;20290;-52
2022/08/13 04:42:25;;;;;;;3.40;2.50;;;16.80;99.90;;;;;;5108014;28;20341;-52
2022/08/13 04:45:06;;;;;;;2.90;2.70;;;17.00;99.90;;;;;;5109034;28;20241;-52
2022/08/13 04:47:40;;;;;;;4.88;2.63;;;17.70;99.90;;;;;;5110289;28;20203;-52
2022/08/13 04:50:09;;;;;;;3.22;2.92;;;18.30;99.90;;;;;;5109281;28;20219;-52
2022/08/13 04:52:38;;;;;;;4.45;2.47;;;18.70;99.80;;;;;;5107882;28;20195;-52
2022/08/13 04:55:10;;;;;;;3.97;2.50;;;19.40;99.10;;;;;;5101462;28;20208;-51
2022/08/13 04:57:42;;;;;;;3.67;2.30;;;19.80;98.20;;;;;;5107219;28;21309;-52
2022/08/13 05:00:32;;;;;;;3.78;2.90;;;20.30;97.20;;;;;;5108748;28;20227;-53
2022/08/13 05:03:12;;;;;;;4.88;2.75;;;20.70;96.00;;;;;;5104682;28;20202;-52
2022/08/13 05:05:40;;;;;;;4.55;2.50;;;20.90;95.30;;;;;;5108100;28;20672;-52
2022/08/13 05:08:11;;;;;;;2.78;2.08;;;21.10;95.20;;;;;;5095692;28;20221;-52
2022/08/13 05:10:41;;;;;;;4.28;2.50;;;21.40;94.70;;;;;;5090290;28;20324;-52
2022/08/13 05:13:25;;;;;;;5.53;2.50;;;21.70;93.70;;;;;;5090528;28;20212;-52
2022/08/13 05:15:58;;;;;;;4.93;2.53;;;22.10;93.20;;;;;;5090784;28;20215;-52
2022/08/13 05:18:30;;;;;;;4.57;2.70;;;22.30;93.20;;;;;;5090235;28;20277;-52
2022/08/13 05:21:01;;;;;;;3.20;2.20;;;22.50;93.00;;;;;;5090160;28;20231;-52
2022/08/13 05:23:34;;;;;;;2.50;2.30;;;22.80;92.70;;;;;;5089966;28;20287;-51
2022/08/13 05:26:23;;;;;;;4.22;2.47;;;23.20;91.90;;;;;;5099921;28;20290;-52
2022/08/13 05:29:13;;;;;;;4.65;2.55;;;23.40;91.40;;;;;;5102313;28;20683;-52
2022/08/13 05:31:42;;;;;;;5.03;2.65;;;23.70;91.60;;;;;;5107424;28;20222;-52
2022/08/13 05:34:25;;;;;;;6.22;2.80;;;23.80;91.30;;;;;;5106421;28;20203;-52
2022/08/13 05:36:54;;;;;;;6.18;2.72;;;24.00;91.40;;;;;;5103360;28;20294;-52
2022/08/13 05:39:43;;;;;;;9.30;2.90;;;23.90;91.40;;;;;;5107994;28;20673;-52
2022/08/13 05:42:18;;;;;;;5.53;2.40;;;23.60;92.10;;;;;;5105460;28;20254;-52
2022/08/13 05:44:55;;;;;;;2.60;2.40;;;22.80;92.30;;;;;;5104990;28;20562;-52
2022/08/13 05:47:25;;;;;;;3.05;2.50;;;22.30;93.20;;;;;;5106084;28;20205;-53
2022/08/13 05:49:54;;;;;;;3.92;2.40;;;21.90;93.80;;;;;;5101204;28;20207;-52
2022/08/13 05:52:30;;;;;;;2.67;2.47;;;21.70;93.80;;;;;;5100801;28;20211;-52
2022/08/13 05:55:14;;;;;;;5.18;2.50;;;21.70;94.00;;;;;;5106166;28;20655;-51
2022/08/13 05:58:02;;;;;;;5.03;2.30;;;21.50;94.30;;;;;;5106963;28;20303;-52
2022/08/13 06:03:39;;;;;;;3.50;2.33;;;21.30;94.80;;;;;;5088103;28;20299;-52
2022/08/13 06:06:28;;;;;;;2.85;2.53;;;21.30;95.30;;;;;;5089505;28;20296;-52
2022/08/13 06:09:04;;;;;;;3.90;2.50;;;21.30;96.10;;;;;;5088656;28;20207;-52
2022/08/13 06:11:39;;;;;;;3.70;2.70;;;21.30;96.80;;;;;;5089744;28;20310;-52
2022/08/13 06:14:27;;;;;;;5.05;2.70;;;21.90;96.90;;;;;;5089112;28;20684;-52
2022/08/13 06:16:59;;;;;;;3.78;2.40;;;22.60;95.90;;;;;;5089612;28;20210;-53
2022/08/13 06:19:32;;;;;;;4.32;2.22;;;22.80;94.70;;;;;;5089827;28;20215;-52
2022/08/13 06:22:03;;;;;;;2.40;2.10;;;22.70;95.00;;;;;;5088949;28;20232;-52
2022/08/13 06:24:34;;;;;;;3.97;2.47;;;23.20;95.20;;;;;;5089220;28;20342;-52
2022/08/13 06:27:19;;;;;;;3.47;2.40;;;24.00;94.90;;;;;;5089168;28;20254;-53
2022/08/13 06:30:09;;;;;;;5.40;2.35;;;24.80;94.20;;;;;;5094082;28;20332;-52
2022/08/13 06:32:38;;;;;;;3.78;2.20;;;25.50;92.50;;;;;;5088200;28;20740;-53
2022/08/13 06:35:28;;;;;;;2.65;2.15;;;25.90;92.10;;;;;;5086025;28;20236;-52
2022/08/13 06:38:13;;;;;;;4.63;2.13;;;26.20;91.20;;;;;;5097996;28;20200;-51
2022/08/13 06:40:49;;;;;;;2.20;2.10;;;26.60;91.10;;;;;;5087850;28;20256;-52
2022/08/13 06:43:19;;;;;;;3.22;2.22;;;26.70;90.60;;;;;;5088731;28;20220;-52
2022/08/13 06:45:48;;;;;;;3.67;2.15;;;26.90;90.30;;;;;;5091304;28;20215;-53
2022/08/13 06:48:17;;;;;;;6.50;2.00;;;27.20;90.70;;;;;;5089407;28;20909;-52
2022/08/13 06:51:04;;;;;;;2.97;2.10;;;27.60;89.30;;;;;;5097611;28;20223;-52
2022/08/13 06:53:35;;;;;;;3.30;2.00;;;27.40;86.90;;;;;;5089837;28;20200;-51
2022/08/13 06:56:25;;;;;;;2.00;1.80;;;27.80;88.70;;;;;;5097011;27;20299;-52
2022/08/13 06:59:04;;;;;;;3.92;2.25;;;27.90;87.60;;;;;;5097039;28;20286;-52
2022/08/13 07:01:47;;;;;;;4.22;2.30;;;28.00;85.90;;;;;;5093671;28;20220;-52
2022/08/13 07:04:35;;;;;;;3.45;2.30;;;28.20;84.00;;;;;;5089115;28;20207;-52
2022/08/13 07:07:07;;;;;;;2.88;1.88;;;28.40;83.70;;;;;;5102161;28;20696;-52
2022/08/13 07:09:36;;;;;;;2.10;1.90;;;28.70;82.40;;;;;;5106471;28;20575;-52
2022/08/13 07:12:13;;;;;;;3.88;2.10;;;28.80;83.40;;;;;;5099442;28;20219;-53
2022/08/13 07:14:43;;;;;;;2.53;2.00;;;29.00;78.80;;;;;;5096208;28;20258;-52
2022/08/13 07:17:23;;;;;;;3.97;2.33;;;29.20;77.30;;;;;;5092134;28;20586;-52
2022/08/13 07:19:51;;;;;;;2.75;2.13;;;29.20;76.20;;;;;;5092738;28;20216;-52
2022/08/13 07:22:35;;;;;;;4.07;2.08;;;29.20;75.40;;;;;;5093880;28;20230;-52
2022/08/13 07:25:25;;;;;;;3.30;2.00;;;29.30;74.30;;;;;;5095414;28;20273;-52
2022/08/13 07:28:15;;;;;;;2.17;1.83;;;29.40;73.70;;;;;;5092209;28;20215;-52
2022/08/13 07:31:05;;;;;;;2.58;1.70;;;29.30;73.30;;;;;;5090974;28;20332;-51
2022/08/13 07:33:43;;;;;;;3.92;2.08;;;29.10;72.80;;;;;;5085979;28;20203;-52
2022/08/13 07:36:29;;;;;;;4.10;2.00;;;29.20;73.30;;;;;;5088595;28;20232;-52
2022/08/13 07:39:02;;;;;;;2.30;2.10;;;29.40;73.20;;;;;;5097299;28;20653;-52
2022/08/13 07:41:40;;;;;;;170.40;28.50;;;29.60;72.20;;;;;;5091591;28;20266;-52
2022/08/13 07:44:28;;;;;;;3.65;2.40;;;29.30;82.70;;;;;;5095624;28;20257;-52
2022/08/13 07:46:59;;;;;;;4.07;1.90;;;29.40;73.90;;;;;;5091727;28;20610;-52
2022/08/13 07:49:28;;;;;;;4.93;2.53;;;29.30;72.10;;;;;;5091167;28;20212;-52
2022/08/13 07:52:13;;;;;;;4.03;2.13;;;29.30;72.80;;;;;;5092583;28;20202;-52
2022/08/13 07:54:47;;;;;;;3.75;2.10;;;29.60;76.00;;;;;;5094928;28;20205;-52
2022/08/13 07:57:18;;;;;;;3.42;1.90;;;29.90;72.00;;;;;;5090060;28;20228;-52
2022/08/13 08:00:08;;;;;;;1.80;1.70;;;29.80;72.20;;;;;;5092547;28;20295;-52
2022/08/13 08:02:45;;;;;;;2.70;1.88;;;29.60;70.60;;;;;;5092240;28;20238;-52
2022/08/13 08:05:15;;;;;;;4.50;2.00;;;29.50;72.40;;;;;;5098528;28;20204;-52
2022/08/13 08:07:50;;;;;;;2.60;2.10;;;29.50;72.80;;;;;;5092607;28;20252;-51
2022/08/13 08:10:39;;;;;;;3.22;2.00;;;29.30;70.80;;;;;;5091530;28;20256;-52
2022/08/13 08:13:09;;;;;;;2.78;2.13;;;29.10;72.50;;;;;;5092504;28;20413;-52
2022/08/13 08:15:43;;;;;;;2.05;1.92;;;29.00;73.30;;;;;;5097891;28;20203;-52
2022/08/13 08:18:33;;;;;;;2.13;1.88;;;28.80;73.20;;;;;;5092809;28;20211;-52
2022/08/13 08:21:23;;;;;;;4.85;2.10;;;28.80;72.40;;;;;;5088427;28;20296;-52
2022/08/13 08:24:13;;;;;;;4.32;1.80;;;28.80;72.70;;;;;;5090936;28;20252;-53
2022/08/13 08:26:53;;;;;;;2.00;1.90;;;28.70;73.40;;;;;;5091218;28;20196;-51
2022/08/13 08:29:21;;;;;;;4.05;2.20;;;28.70;71.40;;;;;;5091341;28;20204;-52
2022/08/13 08:31:51;;;;;;;2.15;1.98;;;28.60;70.00;;;;;;5090934;28;21122;-52
2022/08/13 08:34:29;;;;;;;4.05;2.05;;;28.40;69.40;;;;;;5092353;28;20240;-52
2022/08/13 08:36:58;;;;;;;2.13;1.92;;;28.20;70.50;;;;;;5091563;28;20622;-52
2022/08/13 08:45:34;;;;;;;2.28;2.08;;;28.10;72.10;;;;;;5090673;27;20240;-51
2022/08/13 08:48:22;;;;;;;2.58;1.73;;;28.10;72.40;;;;;;5090283;28;20235;-52
2022/08/13 08:50:54;;;;;;;3.92;2.30;;;28.00;72.20;;;;;;5089636;28;20220;-52
2022/08/13 08:53:25;;;;;;;3.28;2.25;;;28.10;73.30;;;;;;5094607;28;20228;-52
2022/08/13 08:56:15;;;;;;;3.10;2.30;;;28.20;73.10;;;;;;5090655;28;20219;-52
2022/08/13 08:58:45;;;;;;;3.58;2.22;;;28.20;72.40;;;;;;5099785;28;20204;-52
2022/08/13 09:01:13;;;;;;;2.65;2.25;;;28.20;74.00;;;;;;5091844;28;20232;-52
2022/08/13 09:03:46;;;;;;;2.33;2.10;;;28.20;72.30;;;;;;5097084;28;20220;-51
2022/08/13 09:06:28;;;;;;;3.25;2.22;;;28.30;72.70;;;;;;5090972;28;20295;-52
2022/08/13 09:09:17;;;;;;;3.75;2.30;;;28.20;72.30;;;;;;5086656;28;20262;-52
2022/08/13 09:11:48;;;;;;;2.85;2.40;;;28.10;72.60;;;;;;5096205;28;20224;-51
2022/08/13 09:14:26;;;;;;;2.40;2.20;;;28.10;73.30;;;;;;5087849;28;20421;-53
2022/08/13 09:16:56;;;;;;;2.50;2.30;;;28.10;72.60;;;;;;5096887;28;20623;-55
2022/08/13 09:19:26;;;;;;;3.20;2.20;;;28.20;73.50;;;;;;5090482;28;20728;-51
2022/08/13 09:22:17;;;;;;;2.80;2.25;;;28.20;74.70;;;;;;5095171;28;20239;-51
2022/08/13 09:24:53;;;;;;;4.45;2.30;;;28.20;73.00;;;;;;5089824;28;20208;-51
2022/08/13 09:27:23;;;;;;;4.35;2.70;;;28.30;73.10;;;;;;5093538;28;20209;-51
2022/08/13 09:29:52;;;;;;;2.83;2.50;;;28.30;74.70;;;;;;5093407;28;20273;-51
2022/08/13 09:32:29;;;;;;;3.05;2.50;;;28.40;74.00;;;;;;5094940;28;20209;-50
2022/08/13 09:35:02;;;;;;;3.67;2.90;;;28.40;73.50;;;;;;5095411;28;20203;-51
2022/08/13 09:37:31;;;;;;;5.93;2.45;;;28.30;72.90;;;;;;5093137;28;20583;-51
2022/08/13 09:40:24;;;;;;;3.25;2.60;;;28.20;72.60;;;;;;5090315;28;20236;-52
2022/08/13 09:43:19;;;;;;;2.83;2.40;;;28.20;73.00;;;;;;5089634;28;20212;-51
2022/08/13 09:46:10;;;;;;;2.50;2.30;;;28.10;73.00;;;;;;5089529;28;20277;-51
2022/08/13 09:48:46;;;;;;;3.92;2.65;;;28.20;73.30;;;;;;5089129;28;20208;-51
2022/08/13 09:51:15;;;;;;;3.00;2.80;;;28.20;73.40;;;;;;5088840;28;20224;-52
2022/08/13 09:54:05;;;;;;;2.40;2.20;;;28.30;73.30;;;;;;5095326;28;20738;-51
2022/08/13 09:56:37;;;;;;;4.43;2.17;;;28.20;72.30;;;;;;5092580;28;20206;-52
2022/08/13 09:59:06;;;;;;;2.97;2.67;;;27.90;71.40;;;;;;5087372;28;20287;-51
2022/08/13 10:01:38;;;;;;;4.30;2.63;;;28.00;72.10;;;;;;5092016;28;20254;-51
2022/08/13 10:04:26;;;;;;;4.57;2.92;;;28.00;73.00;;;;;;5088842;28;20709;-51
2022/08/13 10:06:58;;;;;;;3.40;2.47;;;28.10;72.20;;;;;;5096421;28;20202;-51
2022/08/13 10:09:30;;;;;;;2.42;2.22;;;28.00;71.60;;;;;;5089409;28;20593;-51
2022/08/13 10:12:01;;;;;;;2.75;2.55;;;27.90;70.90;;;;;;5095038;28;20253;-51
2022/08/13 10:14:48;;;;;;;3.88;2.22;;;27.60;70.70;;;;;;5096915;28;20287;-52
2022/08/13 10:17:26;;;;;;;3.70;2.40;;;27.60;71.80;;;;;;5089245;28;20200;-52
2022/08/13 10:20:16;;;;;;;2.40;2.17;;;27.90;72.90;;;;;;5095611;28;20941;-52
2022/08/13 10:22:47;;;;;;;2.30;2.10;;;28.10;70.20;;;;;;5097704;28;20759;-52
2022/08/13 10:25:16;;;;;;;2.53;2.03;;;28.30;70.20;;;;;;5098149;28;20242;-52
2022/08/13 10:27:46;;;;;;;4.68;2.25;;;28.20;70.80;;;;;;5096849;28;20262;-51
2022/08/13 10:30:19;;;;;;;2.78;2.10;;;27.90;70.40;;;;;;5094425;28;20356;-52
2022/08/13 10:33:08;;;;;;;3.40;2.28;;;28.00;68.90;;;;;;5092182;28;20253;-51
2022/08/13 10:35:37;;;;;;;3.40;2.00;;;28.20;66.90;;;;;;5092257;28;20210;-52
2022/08/13 10:38:15;;;;;;;5.63;2.30;;;28.20;67.60;;;;;;5089494;28;20204;-51
2022/08/13 10:40:47;;;;;;;3.38;2.28;;;28.10;66.90;;;;;;5088189;28;20269;-52
2022/08/13 10:43:20;;;;;;;3.00;2.47;;;28.20;69.50;;;;;;5085563;28;20295;-52
2022/08/13 10:45:55;;;;;;;3.22;2.30;;;28.40;68.50;;;;;;5088883;28;20680;-53
2022/08/13 10:48:25;;;;;;;2.65;2.30;;;28.50;68.90;;;;;;5089654;28;20235;-52
2022/08/13 10:50:54;;;;;;;7.30;2.03;;;28.60;69.40;;;;;;5089471;28;20259;-52
2022/08/13 10:56:12;;;;;;;2.40;2.20;;;28.70;68.20;;;;;;5092156;28;20199;-52
2022/08/13 10:58:45;;;;;;;3.47;2.00;;;28.60;66.70;;;;;;5097348;28;20234;-51
2022/08/13 11:01:24;;;;;;;2.35;2.00;;;28.60;66.70;;;;;;5094955;28;20223;-51
2022/08/13 11:03:56;;;;;;;2.28;2.10;;;28.70;67.50;;;;;;5097127;28;20235;-51
2022/08/13 11:06:32;;;;;;;3.70;2.22;;;28.80;66.60;;;;;;5093527;28;20204;-51
2022/08/13 11:09:02;;;;;;;3.80;2.42;;;28.90;66.70;;;;;;5086585;28;20257;-52
2022/08/13 11:11:50;;;;;;;4.38;2.55;;;28.90;67.70;;;;;;5087058;28;20932;-52
2022/08/13 11:14:21;;;;;;;2.63;2.40;;;28.80;66.90;;;;;;5096684;28;20204;-51
2022/08/13 11:17:04;;;;;;;3.67;2.20;;;28.80;66.60;;;;;;5080934;28;20288;-52
2022/08/13 11:19:54;;;;;;;2.97;2.25;;;28.80;66.70;;;;;;5083891;28;20254;-52
2022/08/13 11:22:30;;;;;;;2.75;2.40;;;28.70;65.90;;;;;;5089614;28;20680;-52
2022/08/13 11:25:11;;;;;;;4.78;2.60;;;28.90;67.00;;;;;;5096104;28;20216;-52
2022/08/13 11:27:59;;;;;;;2.95;1.98;;;28.90;67.60;;;;;;5088397;28;20212;-52
2022/08/13 11:30:27;;;;;;;4.03;2.28;;;29.00;67.30;;;;;;5087403;28;20286;-52
2022/08/13 11:33:05;;;;;;;2.85;2.38;;;28.90;67.00;;;;;;5092272;28;20207;-52
2022/08/13 11:35:42;;;;;;;4.93;2.33;;;29.00;66.70;;;;;;5091451;28;20708;-52
2022/08/13 11:38:18;;;;;;;4.97;2.20;;;28.90;65.90;;;;;;5090600;28;20202;-52
2022/08/13 11:40:48;;;;;;;3.08;2.30;;;28.90;66.60;;;;;;5091550;28;20228;-52
2022/08/13 11:43:24;;;;;;;2.55;2.28;;;29.00;66.00;;;;;;5091411;28;20331;-52
2022/08/13 11:46:12;;;;;;;2.40;2.17;;;29.00;65.50;;;;;;5091683;28;20231;-52
2022/08/13 11:48:41;;;;;;;2.83;2.58;;;28.90;64.60;;;;;;5090799;28;20243;-52
2022/08/13 11:51:31;;;;;;;3.47;2.67;;;28.90;63.90;;;;;;5089522;28;20236;-52
2022/08/13 11:54:20;;;;;;;4.50;2.85;;;28.90;66.90;;;;;;5091881;28;20708;-52
2022/08/13 11:57:00;;;;;;;3.15;2.50;;;28.90;66.80;;;;;;5092907;28;20195;-50
2022/08/13 11:59:29;;;;;;;3.42;2.70;;;28.90;68.00;;;;;;5094426;28;20212;-52
2022/08/13 12:02:07;;;;;;;3.65;2.40;;;28.80;65.60;;;;;;5091904;28;20227;-51
2022/08/13 12:04:43;;;;;;;3.88;2.50;;;28.80;67.10;;;;;;5099765;28;20269;-52
2022/08/13 12:07:18;;;;;;;4.20;2.42;;;28.80;67.00;;;;;;5090911;28;22987;-51
2022/08/13 12:09:48;;;;;;;5.60;2.83;;;28.90;67.00;;;;;;5090293;28;20294;-51
2022/08/13 12:12:23;;;;;;;2.50;2.30;;;28.70;67.40;;;;;;5094212;28;21080;-52
2022/08/13 12:14:58;;;;;;;6.30;2.17;;;28.70;67.30;;;;;;5094664;28;20597;-52
2022/08/13 12:17:27;;;;;;;2.55;2.22;;;28.80;66.30;;;;;;5090405;28;20211;-52
2022/08/13 12:20:17;;;;;;;2.78;2.40;;;28.90;66.10;;;;;;5090498;28;20251;-51
2022/08/13 12:22:50;;;;;;;5.40;2.60;;;29.00;65.70;;;;;;5094514;28;20289;-52
2022/08/13 12:25:20;;;;;;;2.50;2.30;;;29.00;65.80;;;;;;5089517;28;20267;-52
2022/08/13 12:28:17;;;;;;;3.35;2.22;;;29.00;66.40;;;;;;5084967;28;20300;-52
2022/08/13 12:30:57;;;;;;;4.38;2.63;;;29.00;65.30;;;;;;5090553;28;20261;-51
2022/08/13 12:33:26;;;;;;;3.60;2.53;;;29.00;65.80;;;;;;5092253;28;20207;-52
2022/08/13 12:35:59;;;;;;;2.50;2.28;;;28.90;66.70;;;;;;5089170;28;20197;-51
2022/08/13 12:38:31;;;;;;;4.25;2.50;;;28.80;64.80;;;;;;5089364;28;20232;-51
2022/08/13 12:41:02;;;;;;;4.90;2.38;;;28.70;64.90;;;;;;5088525;28;20228;-51
2022/08/13 12:43:45;;;;;;;3.53;2.42;;;28.70;64.70;;;;;;5090366;28;20677;-50
2022/08/13 12:46:34;;;;;;;2.95;2.60;;;28.80;63.30;;;;;;5085846;28;20224;-51
2022/08/13 12:49:04;;;;;;;2.90;2.30;;;28.80;63.70;;;;;;5088060;28;20232;-50
2022/08/13 12:51:42;;;;;;;3.10;2.10;;;28.90;63.00;;;;;;5088832;28;20232;-52
2022/08/13 12:54:25;;;;;;;4.75;2.30;;;29.00;64.50;;;;;;5093850;28;20692;-51
2022/08/13 12:57:14;;;;;;;3.10;2.20;;;29.00;64.50;;;;;;5094416;28;20335;-51
2022/08/13 13:00:03;;;;;;;2.60;2.40;;;29.00;65.00;;;;;;5082229;28;20212;-52
2022/08/13 13:02:33;;;;;;;4.00;2.38;;;29.00;62.40;;;;;;5089484;28;20228;-51
2022/08/13 13:05:02;;;;;;;2.80;2.50;;;29.00;62.80;;;;;;5088500;28;20298;-52
2022/08/13 13:07:48;;;;;;;4.38;2.75;;;29.00;63.90;;;;;;5092571;28;20595;-52
2022/08/13 13:10:39;;;;;;;2.63;2.42;;;28.90;63.50;;;;;;5086392;28;20712;-51
2022/08/13 13:13:13;;;;;;;2.72;2.50;;;28.80;64.90;;;;;;5080390;28;20685;-52
2022/08/13 13:16:01;;;;;;;2.40;2.10;;;28.90;65.40;;;;;;5092088;28;20296;-50
2022/08/13 13:18:49;;;;;;;2.70;2.50;;;28.90;63.40;;;;;;5081330;28;20204;-51
2022/08/13 13:21:26;;;;;;;3.50;2.53;;;28.90;62.50;;;;;;5083266;28;20306;-50
2022/08/13 13:24:07;;;;;;;3.15;2.40;;;29.00;63.50;;;;;;5093319;28;20196;-49
2022/08/13 13:26:48;;;;;;;3.35;2.38;;;29.00;63.90;;;;;;5092039;28;20212;-50
2022/08/13 13:29:30;;;;;;;2.75;2.40;;;29.00;63.20;;;;;;5095634;28;20258;-51
2022/08/13 13:32:06;;;;;;;2.60;2.40;;;29.00;62.80;;;;;;5084987;28;20704;-51
2022/08/13 13:34:55;;;;;;;3.53;2.47;;;29.10;62.70;;;;;;5085761;28;20311;-51
2022/08/13 13:37:27;;;;;;;2.47;2.28;;;29.10;62.30;;;;;;5094730;28;20204;-51
2022/08/13 13:40:16;;;;;;;4.50;2.72;;;29.10;62.70;;;;;;5084960;28;20328;-51
2022/08/13 13:42:46;;;;;;;3.30;3.00;;;29.20;59.50;;;;;;5100204;28;20214;-52
2022/08/13 13:45:36;;;;;;;3.45;2.60;;;29.20;59.60;;;;;;5098542;28;20306;-51
2022/08/13 13:48:21;;;;;;;3.53;2.72;;;29.20;59.50;;;;;;5092000;28;20212;-51
2022/08/13 13:50:51;;;;;;;3.13;2.70;;;29.10;60.00;;;;;;5086817;28;20224;-51
2022/08/13 13:53:20;;;;;;;2.90;2.70;;;29.10;61.50;;;;;;5089434;28;20291;-52
2022/08/13 13:56:07;;;;;;;4.53;2.95;;;29.20;60.80;;;;;;5094976;28;20662;-51